Time;durP1;ratioP1;P1;durP2;ratioP2;P2;SDS_P1;SDS_P2;PMS_P1;PMS_P2;Temp;Humidity;BMP_temperature;BMP_pressure;BME280_temperature;BME280_humidity;BME280_pressure;Samples;Min_cycle;Max_cycle;Signal;HPM_P1;HPM_P2
2022/10/04 00:01:43;;;;;;;17.92;9.77;;;6.00;99.90;;;5.21;100.00;98300.34;6205740;23;20746;-66
2022/10/04 00:04:20;;;;;;;15.90;8.88;;;5.90;99.90;;;5.15;100.00;98306.41;6204855;23;20036;-66
2022/10/04 00:07:06;;;;;;;21.63;8.90;;;5.90;99.90;;;5.28;100.00;98296.84;6206679;23;20027;-67
2022/10/04 00:09:56;;;;;;;15.93;8.32;;;5.90;99.90;;;5.15;100.00;98296.09;6205351;23;20028;-68
2022/10/04 00:12:34;;;;;;;10.40;5.53;;;5.90;99.90;;;5.19;100.00;98297.78;6203220;23;20024;-66
2022/10/04 00:15:24;;;;;;;12.45;7.47;;;5.90;99.90;;;5.12;100.00;98300.44;6205392;23;20021;-67
2022/10/04 00:18:06;;;;;;;13.60;7.65;;;5.90;99.90;;;5.10;100.00;98290.16;6202553;23;20380;-67
2022/10/04 00:20:52;;;;;;;17.55;9.20;;;5.80;99.90;;;5.07;100.00;98286.78;6200231;23;20036;-67
2022/10/04 00:23:22;;;;;;;23.83;8.75;;;5.80;99.90;;;5.14;100.00;98291.84;6201001;23;20029;-67
2022/10/04 00:25:51;;;;;;;13.65;7.45;;;5.80;99.90;;;5.13;100.00;98296.97;6204484;23;20506;-67
2022/10/04 00:28:18;;;;;;;12.95;7.70;;;5.80;99.90;;;5.02;100.00;98292.81;6203162;23;20021;-67
2022/10/04 00:31:13;;;;;;;23.13;10.98;;;5.80;99.90;;;4.98;100.00;98292.84;6205546;23;20020;-67
2022/10/04 00:34:02;;;;;;;14.98;8.30;;;5.70;99.90;;;4.97;100.00;98292.00;6204212;23;20028;-67
2022/10/04 00:36:36;;;;;;;13.98;8.10;;;5.70;99.90;;;4.97;100.00;98298.84;6204426;23;20311;-66
2022/10/04 00:39:06;;;;;;;32.03;10.18;;;5.70;99.90;;;4.97;100.00;98293.69;6205375;23;20020;-67
2022/10/04 00:41:46;;;;;;;16.67;9.88;;;5.60;99.90;;;5.00;100.00;98294.53;6205190;23;20063;-67
2022/10/04 00:44:32;;;;;;;23.83;11.13;;;5.60;99.90;;;4.96;100.00;98289.44;6205688;23;20021;-67
2022/10/04 00:47:02;;;;;;;11.05;6.60;;;5.60;99.90;;;4.85;100.00;98284.38;6202668;23;20547;-67
2022/10/04 00:49:38;;;;;;;10.68;6.05;;;5.60;99.90;;;4.83;100.00;98275.81;6204826;23;20016;-67
2022/10/04 00:52:14;;;;;;;14.27;7.82;;;5.60;99.90;;;4.91;100.00;98274.03;6202674;23;20021;-67
2022/10/04 00:54:49;;;;;;;15.85;9.27;;;5.60;99.90;;;4.67;100.00;98269.09;6203548;23;20023;-66
2022/10/04 00:57:27;;;;;;;14.40;9.23;;;5.60;99.90;;;4.76;100.00;98267.28;6204342;23;20047;-67
2022/10/04 01:00:02;;;;;;;11.73;7.57;;;5.50;99.90;;;4.80;100.00;98270.69;6205262;23;20024;-67
2022/10/04 01:02:43;;;;;;;13.43;7.95;;;5.50;99.90;;;4.91;100.00;98268.88;6204584;23;20031;-67
2022/10/04 01:05:16;;;;;;;15.38;8.00;;;5.60;99.90;;;4.86;100.00;98265.50;6205888;23;20301;-66
2022/10/04 01:07:49;;;;;;;18.05;8.55;;;5.50;99.90;;;4.85;100.00;98270.66;6207575;23;20614;-67
2022/10/04 01:10:59;;;;;;;19.10;9.95;;;5.50;99.90;;;4.77;100.00;98270.75;6207290;23;20441;-67
2022/10/04 01:14:06;;;;;;;14.70;8.15;;;5.40;99.90;;;4.75;100.00;98275.03;6207496;23;20021;-67
2022/10/04 01:16:37;;;;;;;17.65;8.80;;;5.50;99.90;;;4.78;100.00;98280.16;6187037;23;20086;-67
2022/10/04 01:19:25;;;;;;;21.83;9.05;;;5.40;99.90;;;4.66;100.00;98277.69;6207099;23;20050;-67
2022/10/04 01:22:04;;;;;;;13.70;6.25;;;5.40;99.90;;;4.65;100.00;98273.38;6208780;23;20027;-69
2022/10/04 01:24:37;;;;;;;17.80;8.10;;;5.40;99.90;;;4.69;100.00;98265.63;6207424;23;20029;-67
2022/10/04 01:27:42;;;;;;;;;;;5.40;99.90;;;4.69;100.00;98272.50;6207513;23;20020;-67
2022/10/04 01:30:15;;;;;;;14.45;7.88;;;5.40;99.90;;;4.75;100.00;98268.16;6208691;23;19916;-67
2022/10/04 01:32:42;;;;;;;13.53;8.20;;;5.40;99.90;;;4.66;100.00;98268.25;6204694;23;20484;-67
2022/10/04 01:35:14;;;;;;;14.75;7.38;;;5.40;99.90;;;4.79;100.00;98262.13;6205501;23;20021;-67
2022/10/04 01:37:41;;;;;;;10.02;7.15;;;5.40;99.90;;;4.69;100.00;98257.91;6215649;23;20082;-67
2022/10/04 01:40:09;;;;;;;19.15;8.60;;;5.40;99.90;;;4.64;100.00;98258.84;6205069;23;20024;-67
2022/10/04 01:42:55;;;;;;;12.27;7.40;;;5.30;99.90;;;4.61;100.00;98252.84;6205368;23;20028;-66
2022/10/04 01:45:44;;;;;;;12.40;7.35;;;5.30;99.90;;;4.65;100.00;98240.81;6206198;23;20029;-67
2022/10/04 01:48:18;;;;;;;99.72;9.10;;;5.30;99.90;;;4.47;100.00;98238.38;6205660;23;20024;-66
2022/10/04 01:51:19;;;;;;;17.50;7.20;;;5.20;99.90;;;4.48;100.00;98240.09;6205953;23;20209;-67
2022/10/04 01:54:02;;;;;;;15.18;7.10;;;5.20;99.90;;;4.51;100.00;98228.06;6178960;23;20021;-67
2022/10/04 01:56:41;;;;;;;11.82;6.63;;;5.20;99.90;;;4.46;100.00;98226.41;6207015;23;20326;-67
2022/10/04 01:59:18;;;;;;;8.57;5.95;;;5.20;99.90;;;4.21;100.00;98216.31;6205085;23;20043;-67
2022/10/04 02:01:56;;;;;;;9.07;5.72;;;5.10;99.90;;;4.18;100.00;98216.34;6205077;23;20103;-67
2022/10/04 02:04:31;;;;;;;13.75;7.50;;;5.10;99.90;;;3.87;100.00;98215.66;6208471;23;20538;-67
2022/10/04 02:07:00;;;;;;;9.88;6.22;;;5.10;99.90;;;4.15;100.00;98221.47;6206500;23;20025;-67
2022/10/04 02:09:37;;;;;;;12.57;5.80;;;5.00;99.90;;;4.31;100.00;98230.81;6208465;23;20447;-67
2022/10/04 02:12:05;;;;;;;12.82;6.93;;;5.00;99.90;;;4.32;100.00;98234.22;6205987;23;20017;-67
2022/10/04 02:14:34;;;;;;;17.45;8.07;;;5.00;99.90;;;4.27;100.00;98231.69;6206943;23;20024;-66
2022/10/04 02:17:07;;;;;;;12.63;7.40;;;5.00;99.90;;;4.35;100.00;98223.91;6205123;23;20106;-67
2022/10/04 02:19:39;;;;;;;11.13;6.00;;;5.00;99.90;;;4.32;100.00;98224.78;6206892;23;20020;-67
2022/10/04 02:22:09;;;;;;;10.30;5.75;;;5.10;99.90;;;4.18;100.00;98221.47;6206357;23;20025;-67
2022/10/04 02:24:42;;;;;;;10.00;5.93;;;5.00;99.90;;;4.28;100.00;98219.69;6206055;23;20349;-66
2022/10/04 02:27:09;;;;;;;12.65;6.10;;;5.00;99.90;;;4.25;100.00;98215.44;6205596;23;20021;-67
2022/10/04 02:29:37;;;;;;;14.50;7.47;;;5.00;99.90;;;4.30;100.00;98217.97;6204205;23;20396;-67
2022/10/04 02:34:55;;;;;;;11.02;7.20;;;4.90;99.90;;;4.15;100.00;98212.06;6205248;23;20025;-67
2022/10/04 02:37:25;;;;;;;12.30;6.57;;;4.90;99.90;;;4.22;100.00;98199.16;6206319;23;20028;-67
2022/10/04 02:40:11;;;;;;;9.52;4.80;;;4.90;99.90;;;4.15;100.00;98196.66;6204212;23;20368;-67
2022/10/04 02:42:59;;;;;;;13.20;4.75;;;5.00;99.90;;;4.21;100.00;98193.16;6205112;23;20021;-67
2022/10/04 02:45:40;;;;;;;10.02;5.70;;;5.00;99.90;;;4.22;100.00;98189.75;6203860;23;20028;-67
2022/10/04 02:48:27;;;;;;;10.00;5.10;;;5.00;99.90;;;4.25;100.00;98194.03;6203366;23;20044;-67
2022/10/04 02:51:10;;;;;;;30.90;7.47;;;5.00;99.90;;;4.20;100.00;98194.06;6204249;23;20024;-67
2022/10/04 02:54:10;;;;;;;11.02;6.15;;;5.00;99.90;;;4.21;100.00;98200.88;6206169;23;20024;-67
2022/10/04 02:56:37;;;;;;;10.70;6.43;;;4.90;99.90;;;4.22;100.00;98194.91;6204792;23;20092;-67
2022/10/04 02:59:06;;;;;;;10.07;6.30;;;4.90;99.90;;;4.24;100.00;98195.72;6206389;23;20021;-67
2022/10/04 03:01:55;;;;;;;9.95;5.80;;;4.90;99.90;;;4.28;100.00;98189.69;6227812;23;20029;-67
2022/10/04 03:04:32;;;;;;;19.98;6.05;;;4.90;99.90;;;4.31;100.00;98186.25;6206024;23;20191;-67
2022/10/04 03:07:04;;;;;;;11.30;4.35;;;5.00;99.90;;;4.22;100.00;98188.88;6204584;23;20028;-67
2022/10/04 03:09:31;;;;;;;7.22;4.15;;;5.00;99.90;;;4.16;100.00;98185.50;6206559;23;20029;-67
2022/10/04 03:11:59;;;;;;;14.95;7.05;;;4.90;99.90;;;3.78;100.00;98183.19;6204099;23;20031;-67
2022/10/04 03:14:27;;;;;;;15.05;7.03;;;4.80;99.90;;;3.81;100.00;98172.03;6207108;23;20032;-67
2022/10/04 03:16:59;;;;;;;11.23;6.13;;;4.80;99.90;;;3.84;100.00;98170.31;6202956;23;20021;-66
2022/10/04 03:19:30;;;;;;;7.90;4.60;;;4.70;99.90;;;3.96;100.00;98175.34;6204322;23;20820;-67
2022/10/04 03:22:02;;;;;;;8.45;5.28;;;4.80;99.90;;;4.09;100.00;98172.72;6204966;23;20123;-66
2022/10/04 03:24:45;;;;;;;12.07;6.77;;;4.80;99.90;;;4.03;100.00;98171.03;6203393;23;20033;-66
2022/10/04 03:27:23;;;;;;;9.13;6.13;;;4.80;99.90;;;4.02;100.00;98168.50;6203640;23;20734;-66
2022/10/04 03:29:50;;;;;;;11.52;6.22;;;4.80;99.90;;;3.98;100.00;98165.94;6203080;23;20024;-67
2022/10/04 03:32:26;;;;;;;10.45;7.72;;;4.80;99.90;;;3.98;100.00;98177.94;6202628;23;20463;-66
2022/10/04 03:35:00;;;;;;;13.07;8.52;;;4.70;99.90;;;3.98;100.00;98171.06;6204354;23;20166;-67
2022/10/04 03:37:31;;;;;;;12.98;7.03;;;4.70;99.90;;;3.97;100.00;98178.81;6205859;23;20392;-66
2022/10/04 03:39:58;;;;;;;9.60;6.10;;;4.70;99.90;;;4.07;100.00;98165.00;6203898;23;20021;-67
2022/10/04 03:42:33;;;;;;;7.97;5.22;;;4.80;99.90;;;4.01;100.00;98167.63;6204699;23;20028;-66
2022/10/04 03:45:14;;;;;;;7.43;4.88;;;4.80;99.90;;;3.96;100.00;98175.34;6205046;23;20025;-67
2022/10/04 03:47:45;;;;;;;12.15;7.28;;;4.80;99.90;;;3.94;100.00;98176.22;6203633;23;20021;-67
2022/10/04 03:50:26;;;;;;;10.85;6.65;;;4.70;99.90;;;3.91;100.00;98168.56;6204232;23;20025;-67
2022/10/04 03:53:02;;;;;;;12.63;7.53;;;4.70;99.90;;;3.95;100.00;98177.94;6203217;23;20035;-66
2022/10/04 03:55:44;;;;;;;9.88;6.00;;;4.70;99.90;;;3.98;100.00;98183.06;6202485;23;20091;-66
2022/10/04 03:58:17;;;;;;;15.67;6.70;;;4.70;99.90;;;3.89;100.00;98178.00;6204445;23;20021;-66
2022/10/04 04:01:04;;;;;;;16.13;6.65;;;4.70;99.90;;;3.89;100.00;98181.41;6204790;23;20642;-66
2022/10/04 04:04:01;;;;;;;34.85;8.52;;;4.70;99.90;;;3.87;100.00;98187.41;6204362;23;20123;-66
2022/10/04 04:06:54;;;;;;;13.45;6.78;;;4.70;99.90;;;3.89;100.00;98194.25;6205532;23;20028;-66
2022/10/04 04:09:39;;;;;;;10.68;6.95;;;4.70;99.90;;;4.07;100.00;98197.56;6215685;23;20057;-66
2022/10/04 04:12:17;;;;;;;13.32;5.68;;;4.80;99.90;;;3.92;100.00;98195.94;6205593;23;20036;-66
2022/10/04 04:14:49;;;;;;;17.55;7.93;;;4.80;99.90;;;4.06;100.00;98201.84;6202723;23;20357;-66
2022/10/04 04:17:26;;;;;;;11.20;6.55;;;4.80;99.90;;;4.11;100.00;98201.81;6203600;23;20020;-66
2022/10/04 04:19:57;;;;;;;13.55;6.00;;;4.90;99.90;;;4.15;100.00;98195.78;6203538;23;20476;-66
2022/10/04 04:22:30;;;;;;;10.80;5.60;;;4.90;99.90;;;4.26;100.00;98190.56;6202696;23;20032;-66
2022/10/04 04:25:03;;;;;;;7.35;4.25;;;5.00;99.90;;;4.26;100.00;98180.28;6203017;23;20044;-66
2022/10/04 04:27:36;;;;;;;9.18;4.80;;;5.10;99.90;;;4.32;100.00;98188.81;6203310;23;20760;-66
2022/10/04 04:30:05;;;;;;;4.83;3.37;;;5.00;99.90;;;4.28;100.00;98194.84;6204775;23;20031;-66
2022/10/04 04:32:40;;;;;;;6.90;4.07;;;5.00;99.90;;;4.24;100.00;98208.56;6201635;23;20298;-66
2022/10/04 04:35:31;;;;;;;22.73;5.65;;;5.00;99.90;;;4.10;100.00;98205.25;6204421;23;20035;-66
2022/10/04 04:38:21;;;;;;;10.18;5.20;;;4.90;99.90;;;4.25;100.00;98212.00;6205492;23;20108;-66
2022/10/04 04:40:54;;;;;;;27.25;6.18;;;5.00;99.90;;;4.15;100.00;98208.63;6204200;23;20029;-66
2022/10/04 04:43:25;;;;;;;12.00;5.95;;;5.00;99.90;;;4.26;100.00;98218.84;6205272;23;20040;-66
2022/10/04 04:45:54;;;;;;;13.20;6.88;;;5.00;99.90;;;4.25;100.00;98217.16;6203672;23;20459;-66
2022/10/04 04:48:46;;;;;;;13.70;7.15;;;5.10;99.90;;;4.32;100.00;98219.66;6204652;23;20290;-66
2022/10/04 04:51:20;;;;;;;19.42;8.57;;;5.10;99.90;;;4.58;100.00;98216.00;6204625;23;20025;-66
2022/10/04 04:53:50;;;;;;;11.88;8.02;;;5.20;99.90;;;4.71;100.00;98209.91;6204661;23;20092;-66
2022/10/04 04:56:20;;;;;;;12.45;7.05;;;5.40;99.90;;;4.69;100.00;98208.22;6204785;23;20025;-66
2022/10/04 04:58:50;;;;;;;11.90;6.43;;;5.40;99.90;;;4.67;100.00;98204.81;6205626;23;20302;-66
2022/10/04 05:01:30;;;;;;;17.02;7.53;;;5.40;99.90;;;4.73;100.00;98197.88;6204715;23;20075;-66
2022/10/04 05:04:01;;;;;;;12.63;6.53;;;5.40;99.90;;;4.32;100.00;98203.38;6205593;23;20074;-66
2022/10/04 05:06:31;;;;;;;13.27;7.93;;;5.50;99.90;;;4.05;100.00;98201.84;6207280;23;20028;-67
2022/10/04 05:08:58;;;;;;;9.70;5.78;;;5.40;99.90;;;4.37;100.00;98202.47;6205425;23;20028;-68
2022/10/04 05:11:33;;;;;;;9.13;5.10;;;5.30;99.90;;;4.52;100.00;98201.50;6206396;23;20021;-68
2022/10/04 05:14:10;;;;;;;17.98;8.40;;;5.30;99.90;;;4.27;100.00;98190.56;6206898;23;20024;-68
2022/10/04 05:16:51;;;;;;;20.27;9.02;;;5.30;99.90;;;4.03;100.00;98190.75;6204676;23;20021;-67
2022/10/04 05:19:33;;;;;;;17.00;10.15;;;5.30;99.90;;;4.00;100.00;98188.19;6207099;23;20021;-68
2022/10/04 05:22:07;;;;;;;15.20;9.45;;;5.30;99.90;;;4.16;100.00;98188.06;6205432;23;20028;-68
2022/10/04 05:24:39;;;;;;;15.35;9.73;;;5.20;99.90;;;4.21;100.00;98180.31;6207008;23;20029;-67
2022/10/04 05:27:18;;;;;;;22.17;11.07;;;5.30;99.90;;;4.24;100.00;98180.28;6205497;23;20035;-68
2022/10/04 05:30:06;;;;;;;21.85;14.43;;;5.30;99.90;;;4.11;100.00;98181.28;6206011;23;20028;-68
2022/10/04 05:33:07;;;;;;;19.30;13.52;;;5.30;99.90;;;4.07;100.00;98182.16;6207019;23;20032;-68
2022/10/04 05:36:10;;;;;;;25.25;12.70;;;5.30;99.90;;;4.11;100.00;98186.41;6230319;23;20029;-68
2022/10/04 05:39:08;;;;;;;;;;;5.20;99.90;;;4.38;100.00;98182.78;6208132;23;20482;-68
2022/10/04 05:41:57;;;;;;;19.48;12.13;;;5.20;99.90;;;4.40;100.00;98184.47;6206591;23;19919;-68
2022/10/04 05:44:57;;;;;;;21.75;11.82;;;5.20;99.90;;;4.39;100.00;98189.63;6206026;23;20028;-67
2022/10/04 05:47:29;;;;;;;18.27;11.40;;;5.30;99.90;;;4.43;100.00;98185.31;6150477;23;20348;-68
2022/10/04 05:49:59;;;;;;;16.50;9.53;;;5.20;99.90;;;4.50;100.00;98171.53;6205499;23;20064;-67
2022/10/04 05:52:33;;;;;;;19.30;11.75;;;5.20;99.90;;;4.63;100.00;98175.72;6207233;23;20264;-68
2022/10/04 05:55:26;;;;;;;21.60;11.77;;;5.30;99.90;;;4.50;100.00;98171.53;6205248;23;20021;-68
2022/10/04 05:58:01;;;;;;;14.73;10.17;;;5.30;99.90;;;4.54;100.00;98173.22;6205625;23;20025;-68
2022/10/04 06:00:50;;;;;;;18.27;11.10;;;5.30;99.90;;;4.53;100.00;98177.50;6207655;23;20739;-68
2022/10/04 06:03:35;;;;;;;15.65;9.40;;;5.40;99.90;;;4.61;100.00;98177.44;6205713;23;20052;-68
2022/10/04 06:06:26;;;;;;;16.10;9.60;;;5.40;99.90;;;4.61;100.00;98172.28;6231328;23;20021;-68
2022/10/04 06:09:28;;;;;;;23.95;13.30;;;5.40;99.90;;;4.70;100.00;98167.06;6205948;23;20032;-68
2022/10/04 06:12:46;;;;;;;25.58;16.15;;;5.50;99.90;;;4.30;100.00;98169.97;6125705;23;20018;-67
2022/10/04 06:15:59;;;;;;;25.75;12.98;;;5.60;99.90;;;4.27;100.00;98172.59;6195509;23;20027;-68
2022/10/04 06:19:08;;;;;;;27.15;17.75;;;5.50;99.90;;;4.18;100.00;98173.50;6207323;23;20033;-68
2022/10/04 06:22:12;;;;;;;27.20;13.60;;;5.40;99.90;;;4.29;100.00;98177.69;6148520;23;20031;-68
2022/10/04 06:24:44;;;;;;;26.60;14.25;;;5.40;99.90;;;4.34;100.00;98181.09;6207285;23;20029;-67
2022/10/04 06:27:25;;;;;;;30.48;15.38;;;5.50;99.90;;;4.35;100.00;98185.34;6206342;23;20024;-67
2022/10/04 06:30:06;;;;;;;31.35;15.23;;;5.50;99.90;;;4.42;100.00;98188.72;6206694;23;20029;-68
2022/10/04 06:32:57;;;;;;;25.80;14.32;;;5.60;99.90;;;4.55;100.00;98187.78;6206165;23;20028;-68
2022/10/04 06:35:48;;;;;;;25.90;13.48;;;5.70;99.90;;;4.61;100.00;98191.13;6207822;23;20016;-68
2022/10/04 06:38:25;;;;;;;19.30;11.30;;;5.80;99.90;;;4.74;100.00;98179.00;6212818;23;20020;-68
2022/10/04 06:41:38;;;;;;;19.85;11.27;;;5.90;99.90;;;5.07;100.00;98178.69;6215940;23;20619;-68
2022/10/04 06:44:47;;;;;;;21.83;12.73;;;6.00;99.90;;;5.23;100.00;98170.78;6215789;23;20055;-68
2022/10/04 06:48:07;;;;;;;16.58;10.68;;;6.20;99.90;;;5.39;100.00;98168.03;6221591;23;20025;-67
2022/10/04 06:51:01;;;;;;;23.23;13.35;;;6.30;99.90;;;5.45;100.00;98166.22;6207669;23;20087;-67
2022/10/04 06:54:19;;;;;;;19.48;13.60;;;6.50;99.90;;;5.62;100.00;98162.56;6208961;23;20027;-68
2022/10/04 06:57:17;;;;;;;17.08;10.52;;;6.60;99.90;;;5.50;100.00;98158.44;6088060;23;20546;-67
2022/10/04 07:00:14;;;;;;;16.48;11.00;;;6.70;99.90;;;5.65;100.00;98150.50;6230383;23;20036;-67
2022/10/04 07:03:16;;;;;;;18.88;9.85;;;6.70;99.90;;;5.90;100.00;98159.63;6229729;23;20028;-67
2022/10/04 07:06:00;;;;;;;21.17;12.82;;;6.80;99.90;;;5.84;100.00;98166.56;6198409;23;20025;-68
2022/10/04 07:08:50;;;;;;;23.02;15.35;;;6.80;99.90;;;5.74;100.00;98162.41;6203113;23;20024;-68
2022/10/04 07:11:25;;;;;;;27.02;14.77;;;6.70;99.90;;;5.87;100.00;98160.50;6203345;23;20032;-68
2022/10/04 07:14:10;;;;;;;20.92;13.82;;;6.70;99.90;;;5.99;100.00;98147.47;6206841;23;20043;-68
2022/10/04 07:16:54;;;;;;;23.67;14.35;;;6.90;99.90;;;6.08;100.00;98149.91;6205137;23;20017;-68
2022/10/04 07:19:39;;;;;;;20.75;13.60;;;7.00;99.90;;;6.18;100.00;98150.63;6205399;23;20336;-68
2022/10/04 07:22:05;;;;;;;19.70;12.35;;;7.10;99.90;;;6.41;100.00;98155.41;6205502;23;20025;-68
2022/10/04 07:25:11;;;;;;;20.80;13.32;;;7.30;99.90;;;6.53;100.00;98148.34;6205934;23;20028;-68
2022/10/04 07:31:15;;;;;;;15.13;9.77;;;7.80;99.90;;;7.47;100.00;98155.16;6204757;23;20031;-67
2022/10/04 07:34:20;;;;;;;17.65;12.50;;;8.50;99.90;;;8.07;100.00;98154.66;6200090;23;20123;-68
2022/10/04 07:36:52;;;;;;;15.70;10.25;;;9.20;99.90;;;8.85;100.00;98145.88;6205790;23;20025;-68
2022/10/04 07:40:13;;;;;;;12.75;8.43;;;9.70;99.90;;;9.77;100.00;98135.50;6205415;23;20020;-66
2022/10/04 07:42:52;;;;;;;12.73;7.93;;;10.30;99.90;;;10.34;100.00;98133.75;6196133;23;20025;-67
2022/10/04 07:45:28;;;;;;;12.95;8.27;;;11.00;99.90;;;10.76;100.00;98115.03;6204180;23;20503;-67
2022/10/04 07:48:13;;;;;;;12.50;8.30;;;11.30;99.90;;;10.94;100.00;98104.00;6204079;23;20016;-68
2022/10/04 07:51:02;;;;;;;12.15;6.38;;;11.50;99.90;;;11.67;100.00;98087.41;6205387;23;20016;-66
2022/10/04 07:53:42;;;;;;;12.15;6.82;;;12.00;99.90;;;12.17;100.00;98075.09;6204318;23;20021;-66
2022/10/04 07:56:15;;;;;;;11.43;5.80;;;12.60;99.90;;;12.59;100.00;98061.16;6204509;23;20021;-67
2022/10/04 07:59:23;;;;;;;7.78;4.63;;;13.00;99.90;;;13.34;100.00;98050.91;6205251;23;20427;-66
2022/10/04 08:02:22;;;;;;;7.63;5.35;;;13.40;99.90;;;13.56;100.00;98037.69;6215089;23;20337;-66
2022/10/04 08:05:20;;;;;;;9.23;5.97;;;13.90;99.90;;;13.77;100.00;98042.81;6206496;23;20094;-66
2022/10/04 08:08:13;;;;;;;9.40;5.88;;;14.20;99.90;;;13.12;100.00;98055.38;6204797;23;20496;-66
2022/10/04 08:11:42;;;;;;;12.95;6.43;;;14.20;99.90;;;11.85;100.00;98064.19;6207984;23;20032;-66
2022/10/04 08:14:44;;;;;;;9.95;6.78;;;13.80;99.90;;;11.03;100.00;98077.69;6191227;23;20021;-66
2022/10/04 08:17:43;;;;;;;9.63;5.45;;;13.30;99.90;;;11.09;100.00;98077.47;6204163;23;20032;-68
2022/10/04 08:20:23;;;;;;;11.48;5.22;;;13.10;99.90;;;11.28;100.00;98074.19;6203265;23;20024;-68
2022/10/04 08:23:31;;;;;;;11.35;6.22;;;12.80;99.90;;;11.61;100.00;98066.88;6206937;23;20831;-68
2022/10/04 08:26:50;;;;;;;7.30;5.07;;;12.70;99.90;;;11.88;100.00;98069.31;6206067;23;20020;-68
2022/10/04 08:30:01;;;;;;;9.27;6.68;;;12.70;99.90;;;11.79;100.00;98067.03;6204882;23;20036;-68
2022/10/04 08:32:32;;;;;;;9.48;6.18;;;12.80;99.90;;;11.95;100.00;98068.16;6194993;23;20035;-68
2022/10/04 08:35:20;;;;;;;10.20;6.18;;;12.90;99.90;;;12.14;100.00;98069.09;6204011;23;20031;-67
2022/10/04 08:38:21;;;;;;;16.90;7.28;;;12.90;99.90;;;12.28;100.00;98058.13;6204500;23;20017;-67
2022/10/04 08:41:07;;;;;;;12.15;5.75;;;13.10;99.90;;;12.54;100.00;98070.06;6203315;23;20400;-68
2022/10/04 08:44:31;;;;;;;11.95;6.20;;;13.30;99.90;;;12.68;100.00;98068.59;6206159;23;20332;-67
2022/10/04 08:47:18;;;;;;;18.17;10.10;;;13.50;99.90;;;12.59;100.00;98072.47;6205664;23;20356;-68
2022/10/04 08:50:24;;;;;;;11.57;5.13;;;13.70;99.90;;;11.95;100.00;98078.56;6206016;23;20028;-68
2022/10/04 08:53:20;;;;;;;8.88;4.30;;;13.50;99.90;;;12.48;100.00;98077.28;6205392;23;20028;-68
2022/10/04 08:56:42;;;;;;;7.30;3.90;;;13.60;99.90;;;13.03;100.00;98074.03;6206079;23;20512;-66
2022/10/04 08:59:23;;;;;;;7.15;3.75;;;14.10;99.90;;;13.83;100.00;98071.22;6182772;23;20452;-66
2022/10/04 09:02:36;;;;;;;4.90;3.30;;;14.80;99.90;;;14.35;100.00;98065.22;6203046;23;20115;-66
2022/10/04 09:05:33;;;;;;;;;;;15.40;99.90;;;14.38;100.00;98058.06;6204944;23;20024;-66
2022/10/04 09:09:11;;;;;;;6.25;2.70;;;15.70;99.90;;;14.87;100.00;98059.97;6214182;23;19926;-66
2022/10/04 09:11:43;;;;;;;5.97;3.08;;;15.80;99.90;;;15.19;100.00;98058.28;6205139;23;20913;-66
2022/10/04 09:15:05;;;;;;;6.03;2.92;;;15.90;99.90;;;15.55;100.00;98059.78;6214631;23;20025;-66
2022/10/04 09:17:35;;;;;;;7.65;3.65;;;15.90;99.90;;;15.36;100.00;98065.19;6174759;23;20380;-66
2022/10/04 09:20:32;;;;;;;6.80;2.65;;;15.70;99.90;;;15.70;100.00;98071.19;6204144;23;20021;-66
2022/10/04 09:23:40;;;;;;;5.68;2.38;;;15.80;99.90;;;15.48;100.00;98074.97;6215141;23;20388;-66
2022/10/04 09:26:20;;;;;;;6.20;2.80;;;16.00;99.90;;;15.57;100.00;98078.88;6203903;23;20047;-66
2022/10/04 09:29:41;;;;;;;9.15;4.00;;;16.10;99.90;;;15.07;100.00;98082.44;6202936;23;20029;-66
2022/10/04 09:32:37;;;;;;;5.57;3.03;;;16.10;99.90;;;15.47;100.00;98077.69;6206934;23;20036;-66
2022/10/04 09:35:23;;;;;;;7.38;2.67;;;16.10;99.90;;;15.62;100.00;98071.63;6194416;23;20028;-66
2022/10/04 09:38:14;;;;;;;11.05;3.80;;;16.20;99.90;;;14.42;100.00;98083.09;6208117;23;20020;-66
2022/10/04 09:41:07;;;;;;;9.65;3.47;;;16.20;99.90;;;14.90;100.00;98092.94;6208906;23;20017;-66
2022/10/04 09:43:57;;;;;;;10.52;3.33;;;16.10;99.90;;;15.28;100.00;98077.88;6206501;23;20146;-66
2022/10/04 09:46:36;;;;;;;7.43;3.28;;;16.00;99.90;;;15.26;100.00;98077.94;6205944;23;20542;-65
2022/10/04 09:49:31;;;;;;;7.95;3.25;;;16.10;99.90;;;15.03;100.00;98076.53;6208163;23;20242;-66
2022/10/04 09:52:38;;;;;;;10.48;3.47;;;15.90;99.90;;;15.11;100.00;98072.69;6207687;23;20020;-66
2022/10/04 09:55:35;;;;;;;4.80;2.28;;;15.90;99.90;;;15.26;100.00;98079.72;6207739;23;20029;-66
2022/10/04 09:58:42;;;;;;;5.82;2.70;;;16.10;99.90;;;15.15;100.00;98077.66;6207396;23;20020;-66
2022/10/04 10:01:28;;;;;;;8.32;3.10;;;16.10;99.90;;;15.26;100.00;98083.16;6207988;23;20025;-66
2022/10/04 10:04:38;;;;;;;7.15;3.15;;;16.00;99.90;;;14.96;100.00;98082.16;6205473;23;20032;-66
2022/10/04 10:07:24;;;;;;;7.93;2.90;;;16.00;99.90;;;15.18;100.00;98074.03;6207433;23;20798;-66
2022/10/04 10:16:11;;;;;;;8.95;2.55;;;15.80;99.90;;;15.01;100.00;98074.94;6207200;23;20029;-66
2022/10/04 10:19:19;;;;;;;5.57;2.35;;;15.70;99.90;;;15.06;100.00;98081.59;6205169;23;20024;-66
2022/10/04 10:22:14;;;;;;;6.00;2.70;;;15.80;99.90;;;14.90;100.00;98085.94;6205572;23;20029;-66
2022/10/04 10:25:24;;;;;;;5.68;2.25;;;15.70;99.90;;;15.00;100.00;98083.69;6205955;23;20412;-66
2022/10/04 10:28:32;;;;;;;5.72;2.40;;;15.70;99.90;;;15.10;100.00;98068.34;6203516;23;20028;-66
2022/10/04 10:31:23;;;;;;;5.85;2.70;;;15.80;99.90;;;15.31;100.00;98071.63;6205168;23;20100;-66
2022/10/04 10:34:04;;;;;;;7.45;2.17;;;15.90;99.90;;;15.37;100.00;98074.75;6202919;23;20079;-66
2022/10/04 10:36:43;;;;;;;4.57;1.80;;;16.00;99.90;;;15.23;100.00;98070.22;6202638;23;20508;-66
2022/10/04 10:39:37;;;;;;;4.88;2.05;;;16.00;99.90;;;15.31;100.00;98075.06;6203963;23;20036;-66
2022/10/04 10:42:26;;;;;;;4.40;2.45;;;15.90;99.90;;;15.33;100.00;98075.84;6229035;23;20636;-66
2022/10/04 10:45:13;;;;;;;6.05;2.40;;;16.00;99.90;;;15.39;100.00;98080.72;6206547;23;20059;-66
2022/10/04 10:48:00;;;;;;;8.57;2.53;;;16.00;99.90;;;15.17;100.00;98085.44;6202595;23;20025;-66
2022/10/04 10:50:58;;;;;;;4.57;2.10;;;16.00;99.90;;;15.41;100.00;98085.88;6206241;23;20479;-66
2022/10/04 10:53:30;;;;;;;6.05;2.55;;;16.10;99.90;;;15.28;100.00;98080.47;6206097;23;20021;-66
2022/10/04 10:56:17;;;;;;;;;;;16.10;99.90;;;15.55;100.00;98075.50;6230510;23;20080;-66
2022/10/04 10:59:04;;;;;;;6.28;2.25;;;16.10;99.90;;;15.49;100.00;98081.09;6206945;23;19919;-66
2022/10/04 11:02:04;;;;;;;6.32;2.05;;;16.20;99.90;;;15.59;100.00;98082.25;6203556;23;20030;-66
2022/10/04 11:05:21;;;;;;;2.97;1.63;;;16.20;99.90;;;15.68;100.00;98079.13;6216205;23;20032;-66
2022/10/04 11:07:52;;;;;;;6.13;1.80;;;16.30;99.90;;;15.66;100.00;98077.53;6206747;23;20024;-66
2022/10/04 11:10:32;;;;;;;8.25;2.10;;;16.40;99.90;;;15.44;100.00;98083.94;6204389;23;20021;-66
2022/10/04 11:13:38;;;;;;;4.78;2.20;;;16.30;99.90;;;15.70;100.00;98081.66;6214093;23;20027;-66
2022/10/04 11:16:33;;;;;;;4.80;2.00;;;16.50;99.90;;;15.86;100.00;98077.28;6204268;23;20102;-66
2022/10/04 11:19:32;;;;;;;5.70;2.33;;;16.50;99.90;;;16.06;100.00;98065.69;6206276;23;20046;-66
2022/10/04 11:22:19;;;;;;;6.50;2.13;;;16.60;99.90;;;16.08;100.00;98063.84;6204514;23;20020;-66
2022/10/04 11:25:42;;;;;;;23.38;14.50;;;16.70;99.90;;;15.85;100.00;98069.53;6204632;23;20040;-66
2022/10/04 11:28:30;;;;;;;8.13;3.38;;;16.70;99.90;;;16.08;100.00;98057.78;6207757;23;20055;-66
2022/10/04 11:31:52;;;;;;;8.57;3.50;;;16.80;99.90;;;16.27;100.00;98053.13;6203568;23;20051;-66
2022/10/04 11:34:30;;;;;;;7.88;2.15;;;16.80;99.90;;;16.30;100.00;98041.63;6206566;23;20025;-66
2022/10/04 11:37:42;;;;;;;9.25;4.70;;;16.90;99.90;;;15.94;100.00;98052.44;6207085;23;20640;-66
2022/10/04 11:40:20;;;;;;;4.85;1.95;;;17.00;99.90;;;16.03;100.00;98059.78;6204735;23;20476;-66
2022/10/04 11:43:37;;;;;;;17.63;11.90;;;17.00;99.90;;;16.23;100.00;98050.78;6204078;23;20036;-66
2022/10/04 11:46:13;;;;;;;4.40;1.60;;;17.00;99.90;;;16.37;100.00;98049.97;6116528;23;20492;-66
2022/10/04 11:49:20;;;;;;;5.50;2.92;;;17.10;99.90;;;16.45;100.00;98050.38;6208121;23;20027;-68